Time;durP1;ratioP1;P1;durP2;ratioP2;P2;SDS_P1;SDS_P2;PMS_P1;PMS_P2;Temp;Humidity;BMP_temperature;BMP_pressure;BME280_temperature;BME280_humidity;BME280_pressure;Samples;Min_cycle;Max_cycle;Signal;HPM_P1;HPM_P2
2024/04/24 00:00:41;;;;;;;7.15;5.45;;;8.50;99.90;;;;;;5455667;26;20295;-76
2024/04/24 00:03:07;;;;;;;6.70;5.43;;;8.50;99.90;;;;;;5463120;26;20284;-76
2024/04/24 00:05:34;;;;;;;7.53;6.32;;;8.50;99.90;;;;;;5486103;26;20290;-77
2024/04/24 00:08:00;;;;;;;7.13;6.43;;;8.50;99.90;;;;;;5452465;26;20333;-76
2024/04/24 00:10:27;;;;;;;7.55;5.43;;;8.50;99.90;;;;;;5453365;26;20290;-77
2024/04/24 00:12:53;;;;;;;7.50;5.78;;;8.50;99.90;;;;;;5450027;26;20251;-76
2024/04/24 00:15:19;;;;;;;7.25;6.25;;;8.50;99.90;;;;;;5444574;26;20231;-76
2024/04/24 00:17:45;;;;;;;7.40;6.68;;;8.50;99.90;;;;;;5450185;26;20669;-77
2024/04/24 00:20:11;;;;;;;7.55;5.50;;;8.50;99.90;;;;;;5480752;26;20280;-77
2024/04/24 00:22:37;;;;;;;7.28;6.50;;;8.50;99.90;;;;;;5453073;26;20599;-77
2024/04/24 00:25:04;;;;;;;7.75;6.60;;;8.60;99.90;;;;;;5451560;26;20221;-78
2024/04/24 00:27:30;;;;;;;6.82;6.13;;;8.50;99.90;;;;;;5450275;26;20265;-77
2024/04/24 00:29:56;;;;;;;10.15;6.70;;;8.60;99.90;;;;;;5412224;26;20331;-77
2024/04/24 00:32:22;;;;;;;8.40;5.93;;;8.60;99.90;;;;;;5430313;26;20278;-78
2024/04/24 00:34:48;;;;;;;6.97;6.28;;;8.60;99.90;;;;;;5450191;26;20256;-78
2024/04/24 00:37:14;;;;;;;8.95;5.10;;;8.60;99.90;;;;;;5449510;26;20273;-77
2024/04/24 00:39:40;;;;;;;6.80;5.70;;;8.60;99.90;;;;;;5451202;26;20634;-77
2024/04/24 00:42:18;;;;;;;7.38;5.95;;;8.60;99.90;;;;;;5480181;26;20225;-78
2024/04/24 00:44:44;;;;;;;7.82;5.05;;;8.60;99.90;;;;;;5448590;26;20226;-78
2024/04/24 00:47:12;;;;;;;10.73;5.57;;;8.60;99.90;;;;;;5450313;26;20614;-78
2024/04/24 00:49:39;;;;;;;7.38;4.32;;;8.60;99.90;;;;;;5451918;26;20272;-78
2024/04/24 00:52:05;;;;;;;4.47;4.00;;;8.60;99.90;;;;;;5454154;26;20277;-77
2024/04/24 00:54:31;;;;;;;4.95;3.70;;;8.60;99.90;;;;;;5427766;26;20273;-77
2024/04/24 00:57:00;;;;;;;4.30;3.63;;;8.60;99.90;;;;;;5450443;26;20234;-78
2024/04/24 00:59:27;;;;;;;5.82;3.80;;;8.60;99.90;;;;;;5452035;26;20229;-78
2024/04/24 01:01:53;;;;;;;7.13;4.35;;;8.60;99.90;;;;;;5452491;26;20298;-77
2024/04/24 01:04:19;;;;;;;6.63;3.72;;;8.60;99.90;;;;;;5440087;26;20580;-77
2024/04/24 01:06:45;;;;;;;3.83;3.22;;;8.60;99.90;;;;;;5451643;26;20293;-77
2024/04/24 01:09:11;;;;;;;4.65;3.55;;;8.50;99.90;;;;;;5466533;26;20226;-77
2024/04/24 01:11:37;;;;;;;6.00;3.33;;;8.50;99.90;;;;;;5447922;26;20265;-77
2024/04/24 01:14:03;;;;;;;6.28;2.95;;;8.40;99.90;;;;;;5452192;26;20572;-77
2024/04/24 01:16:37;;;;;;;5.07;2.78;;;8.40;99.90;;;;;;5451500;26;20276;-77
2024/04/24 01:19:29;;;;;;;4.40;2.50;;;8.30;99.90;;;;;;5440197;26;20234;-77
2024/04/24 01:22:44;;;;;;;9.32;2.90;;;8.30;99.90;;;;;;5399885;26;20231;-76
2024/04/24 01:25:26;;;;;;;7.00;2.53;;;8.20;99.90;;;;;;5407734;26;20285;-77
2024/04/24 01:27:52;;;;;;;6.65;3.08;;;8.20;99.90;;;;;;5384796;26;20223;-77
2024/04/24 01:30:18;;;;;;;8.38;2.67;;;8.10;99.90;;;;;;5421715;26;20222;-77
2024/04/24 01:32:45;;;;;;;4.95;2.72;;;8.10;99.90;;;;;;5396349;26;21123;-77
2024/04/24 01:35:11;;;;;;;4.55;3.38;;;8.10;99.90;;;;;;5452261;26;20230;-77
2024/04/24 01:37:37;;;;;;;6.45;3.25;;;8.00;99.90;;;;;;5457581;26;20605;-77
2024/04/24 01:40:03;;;;;;;5.78;3.38;;;8.00;99.90;;;;;;5454801;26;20827;-77
2024/04/24 01:42:29;;;;;;;4.80;2.92;;;7.90;99.90;;;;;;5425506;26;20273;-77
2024/04/24 01:44:56;;;;;;;4.55;2.60;;;7.90;99.90;;;;;;5418397;26;20238;-77
2024/04/24 01:47:22;;;;;;;4.05;2.17;;;7.90;99.90;;;;;;5489193;26;20269;-77
2024/04/24 01:49:48;;;;;;;4.68;2.50;;;7.90;99.90;;;;;;5486068;26;20230;-77
2024/04/24 01:52:14;;;;;;;5.43;2.70;;;7.80;99.90;;;;;;5477655;26;20254;-77
2024/04/24 01:54:40;;;;;;;4.40;2.03;;;7.80;99.90;;;;;;5456281;26;20269;-78
2024/04/24 01:57:06;;;;;;;5.05;3.03;;;7.80;99.90;;;;;;5458503;26;20272;-78
2024/04/24 01:59:32;;;;;;;3.45;2.42;;;7.80;99.90;;;;;;5430843;26;20765;-78
2024/04/24 02:01:58;;;;;;;5.28;2.25;;;7.80;99.90;;;;;;5444217;26;20272;-78
2024/04/24 02:04:24;;;;;;;2.78;1.60;;;7.80;99.90;;;;;;5455541;26;20225;-78
2024/04/24 02:06:50;;;;;;;5.10;1.90;;;7.80;99.90;;;;;;5461947;26;20224;-78
2024/04/24 02:09:17;;;;;;;3.70;1.95;;;7.80;99.90;;;;;;5457357;26;20297;-78
2024/04/24 02:11:43;;;;;;;2.85;1.67;;;7.80;99.90;;;;;;5466605;26;20290;-78
2024/04/24 02:14:09;;;;;;;5.82;1.60;;;7.80;99.90;;;;;;5481146;26;20221;-78
2024/04/24 02:16:35;;;;;;;3.88;1.33;;;7.80;99.90;;;;;;5461438;26;20268;-78
2024/04/24 02:19:01;;;;;;;2.67;1.50;;;7.80;99.90;;;;;;5450934;26;20249;-79
2024/04/24 02:21:27;;;;;;;3.53;1.73;;;7.80;99.90;;;;;;5437865;26;20279;-78
2024/04/24 02:23:53;;;;;;;10.80;2.15;;;7.80;99.90;;;;;;5470177;26;21388;-79
2024/04/24 02:26:19;;;;;;;3.28;1.40;;;7.80;99.90;;;;;;5444912;26;20301;-79
2024/04/24 02:28:45;;;;;;;3.00;1.42;;;7.80;99.90;;;;;;5464261;26;20268;-78
2024/04/24 02:31:12;;;;;;;5.85;1.40;;;7.80;99.90;;;;;;5459814;26;20221;-78
2024/04/24 02:33:39;;;;;;;2.67;1.20;;;7.90;99.90;;;;;;5453414;26;20542;-78
2024/04/24 02:36:05;;;;;;;3.00;1.40;;;7.80;99.90;;;;;;5463498;26;20234;-78
2024/04/24 02:38:31;;;;;;;4.20;1.52;;;7.90;99.90;;;;;;5467328;26;20218;-78
2024/04/24 02:40:58;;;;;;;4.65;1.50;;;7.80;99.90;;;;;;5462610;26;20222;-78
2024/04/24 02:43:24;;;;;;;4.57;1.30;;;7.90;99.90;;;;;;5463253;26;20217;-78
2024/04/24 02:45:50;;;;;;;4.95;1.33;;;7.80;99.90;;;;;;5495420;26;20222;-78
2024/04/24 02:48:16;;;;;;;4.90;1.10;;;7.80;99.90;;;;;;5470471;26;20214;-78
2024/04/24 02:50:42;;;;;;;2.78;0.98;;;7.80;99.90;;;;;;5466638;26;20712;-78
2024/04/24 02:53:08;;;;;;;4.68;1.13;;;7.80;99.90;;;;;;5464771;26;20272;-78
2024/04/24 02:55:34;;;;;;;3.70;1.00;;;7.80;99.90;;;;;;5462618;26;20230;-78
2024/04/24 02:58:00;;;;;;;2.97;1.00;;;7.80;99.90;;;;;;5459708;26;20261;-78
2024/04/24 03:00:27;;;;;;;3.45;0.90;;;7.80;99.90;;;;;;5448295;26;20223;-78
2024/04/24 03:02:53;;;;;;;2.60;1.00;;;7.80;99.90;;;;;;5447149;26;20230;-78
2024/04/24 03:05:19;;;;;;;2.35;0.90;;;7.80;99.90;;;;;;5466781;26;20226;-77
2024/04/24 03:07:45;;;;;;;3.85;1.02;;;7.80;99.90;;;;;;5467679;26;20222;-78
2024/04/24 03:10:11;;;;;;;2.13;1.00;;;7.80;99.90;;;;;;5467516;26;20265;-78
2024/04/24 03:12:37;;;;;;;3.42;0.95;;;7.80;99.90;;;;;;5466751;26;20226;-78
2024/04/24 03:15:04;;;;;;;2.03;0.90;;;7.90;99.90;;;;;;5468367;26;20280;-78
2024/04/24 03:17:30;;;;;;;3.60;1.27;;;7.90;99.90;;;;;;5458003;26;20223;-78
2024/04/24 03:19:56;;;;;;;4.40;1.20;;;7.80;99.90;;;;;;5447673;26;22047;-78
2024/04/24 03:22:22;;;;;;;2.65;0.90;;;7.90;99.90;;;;;;5472303;26;20225;-78
2024/04/24 03:24:48;;;;;;;4.10;1.00;;;7.90;99.90;;;;;;5465800;26;20790;-78
2024/04/24 03:27:14;;;;;;;4.85;1.45;;;7.80;99.90;;;;;;5440124;26;20225;-78
2024/04/24 03:29:40;;;;;;;5.63;1.25;;;7.80;99.90;;;;;;5447657;26;20641;-78
2024/04/24 03:32:06;;;;;;;3.28;1.38;;;7.90;99.90;;;;;;5444513;26;20229;-78
2024/04/24 03:34:32;;;;;;;6.93;1.88;;;7.80;99.90;;;;;;5462364;26;20703;-78
2024/04/24 03:36:58;;;;;;;4.78;1.30;;;7.80;99.90;;;;;;5463312;26;20229;-78
2024/04/24 03:39:24;;;;;;;5.18;1.40;;;7.80;99.90;;;;;;5467239;26;20785;-78
2024/04/24 03:41:50;;;;;;;3.90;1.17;;;7.80;99.90;;;;;;5469994;26;20302;-78
2024/04/24 03:44:16;;;;;;;4.15;1.48;;;7.80;99.90;;;;;;5467480;26;20252;-78
2024/04/24 03:46:43;;;;;;;6.95;1.92;;;7.80;99.90;;;;;;5452506;26;20289;-77
2024/04/24 03:49:09;;;;;;;4.78;1.80;;;7.90;99.90;;;;;;5454401;26;20233;-77
2024/04/24 03:51:35;;;;;;;3.70;1.50;;;7.80;99.90;;;;;;5479831;26;20268;-77
2024/04/24 03:54:02;;;;;;;5.13;2.13;;;7.80;99.90;;;;;;5479905;26;20262;-77
2024/04/24 03:56:28;;;;;;;6.85;2.03;;;7.90;99.90;;;;;;5418800;26;20230;-77
2024/04/24 03:58:54;;;;;;;6.38;1.95;;;7.90;99.90;;;;;;5441884;26;20230;-77
2024/04/24 04:01:22;;;;;;;7.50;1.73;;;7.90;99.90;;;;;;5443103;26;20305;-77
2024/04/24 04:03:48;;;;;;;3.78;1.25;;;7.90;99.90;;;;;;5448273;26;20720;-77
2024/04/24 04:06:14;;;;;;;3.35;1.75;;;7.90;99.90;;;;;;5450583;26;20392;-77
2024/04/24 04:08:40;;;;;;;3.63;1.88;;;7.90;99.90;;;;;;5451836;26;20289;-79
2024/04/24 04:11:06;;;;;;;4.00;1.85;;;7.90;99.90;;;;;;5460745;26;20310;-78
2024/04/24 04:13:32;;;;;;;4.40;2.45;;;7.90;99.90;;;;;;5448602;26;20253;-79
2024/04/24 04:15:58;;;;;;;7.82;2.78;;;7.90;99.90;;;;;;5444269;26;20225;-78
2024/04/24 04:18:25;;;;;;;3.97;1.95;;;7.90;99.90;;;;;;5437663;26;20274;-78
2024/04/24 04:20:51;;;;;;;6.20;2.60;;;7.90;99.90;;;;;;5434066;26;20289;-79
2024/04/24 04:23:17;;;;;;;6.32;2.20;;;7.90;99.90;;;;;;5444622;26;20628;-78
2024/04/24 04:25:43;;;;;;;6.25;2.90;;;7.90;99.90;;;;;;5458819;26;20293;-78
2024/04/24 04:28:09;;;;;;;3.80;1.95;;;7.90;99.90;;;;;;5458088;26;20297;-78
2024/04/24 04:30:35;;;;;;;4.18;2.33;;;7.90;99.90;;;;;;5451113;26;20350;-78
2024/04/24 04:33:02;;;;;;;3.95;2.08;;;7.90;99.90;;;;;;5458154;26;20348;-78
2024/04/24 04:35:28;;;;;;;9.02;2.47;;;7.90;99.90;;;;;;5459178;26;20277;-78
2024/04/24 04:37:54;;;;;;;4.20;2.25;;;8.00;99.90;;;;;;5452171;26;20291;-78
2024/04/24 04:40:20;;;;;;;3.75;2.42;;;8.00;99.90;;;;;;5441885;26;20276;-78
2024/04/24 04:42:46;;;;;;;5.18;2.05;;;8.00;99.90;;;;;;5456355;26;20708;-78
2024/04/24 04:45:12;;;;;;;4.13;2.13;;;8.00;99.90;;;;;;5454068;26;20285;-78
2024/04/24 04:47:38;;;;;;;5.32;2.00;;;8.00;99.90;;;;;;5452692;26;20303;-79
2024/04/24 04:50:05;;;;;;;4.82;2.15;;;8.00;99.90;;;;;;5448384;26;20276;-78
2024/04/24 04:52:31;;;;;;;10.80;2.13;;;8.10;99.90;;;;;;5450603;26;20297;-78
2024/04/24 04:54:57;;;;;;;5.63;2.25;;;8.10;99.90;;;;;;5443565;26;20237;-78
2024/04/24 04:57:23;;;;;;;6.25;2.58;;;8.10;99.90;;;;;;5438819;26;20764;-78
2024/04/24 04:59:50;;;;;;;7.63;1.95;;;8.10;99.90;;;;;;5445435;26;20238;-78
2024/04/24 05:02:16;;;;;;;6.07;2.05;;;8.20;99.90;;;;;;5479564;26;20229;-79
2024/04/24 05:04:42;;;;;;;3.25;1.75;;;8.20;99.90;;;;;;5479636;26;20314;-78
2024/04/24 05:07:08;;;;;;;4.97;1.85;;;8.20;99.90;;;;;;5450362;26;20794;-78
2024/04/24 05:09:35;;;;;;;5.43;2.00;;;8.30;99.90;;;;;;5419515;26;20258;-78
2024/04/24 05:12:01;;;;;;;6.40;2.33;;;8.30;99.90;;;;;;5448559;26;20641;-77
2024/04/24 05:14:27;;;;;;;2.75;1.20;;;8.30;99.90;;;;;;5447948;26;20277;-78
2024/04/24 05:16:53;;;;;;;4.45;1.52;;;8.30;99.90;;;;;;5435951;26;20287;-78
2024/04/24 05:19:19;;;;;;;3.38;1.48;;;8.30;99.90;;;;;;5446819;26;20792;-78
2024/04/24 05:21:45;;;;;;;2.85;1.30;;;8.30;99.90;;;;;;5423782;26;20278;-78
2024/04/24 05:24:12;;;;;;;2.78;1.33;;;8.30;99.90;;;;;;5462806;26;20233;-78
2024/04/24 05:29:23;;;;;;;3.03;1.90;;;8.30;99.90;;;;;;5438580;26;20229;-78
2024/04/24 05:31:49;;;;;;;4.93;2.72;;;8.30;99.90;;;;;;5440358;26;20276;-78
2024/04/24 05:34:16;;;;;;;3.55;2.55;;;8.40;99.90;;;;;;5465000;26;20333;-78
2024/04/24 05:36:42;;;;;;;5.22;2.25;;;8.40;99.90;;;;;;5444475;26;20252;-78
2024/04/24 05:39:08;;;;;;;4.50;2.88;;;8.40;99.90;;;;;;5446205;26;20226;-77
2024/04/24 05:41:34;;;;;;;3.75;2.03;;;8.40;99.90;;;;;;5450191;26;20217;-78
2024/04/24 05:44:00;;;;;;;6.15;2.72;;;8.40;99.90;;;;;;5445698;26;20305;-78
2024/04/24 05:46:27;;;;;;;4.78;3.05;;;8.50;99.90;;;;;;5465643;26;20266;-78
2024/04/24 05:48:53;;;;;;;3.70;2.75;;;8.50;99.90;;;;;;5471951;26;20284;-77
2024/04/24 05:51:19;;;;;;;6.18;2.60;;;8.60;99.90;;;;;;5467208;26;20261;-78
2024/04/24 05:53:45;;;;;;;3.88;2.47;;;8.70;99.90;;;;;;5450562;26;20688;-78
2024/04/24 05:56:11;;;;;;;7.70;3.55;;;8.70;99.90;;;;;;5438749;26;20564;-78
2024/04/24 05:58:37;;;;;;;4.35;2.45;;;8.80;99.90;;;;;;5450486;26;20272;-78
2024/04/24 06:01:03;;;;;;;3.28;2.25;;;8.90;99.90;;;;;;5450428;26;20285;-77
2024/04/24 06:03:29;;;;;;;5.35;2.97;;;8.90;99.90;;;;;;5447723;26;20761;-78
2024/04/24 06:05:55;;;;;;;3.75;2.60;;;9.00;99.90;;;;;;5426624;26;20231;-78
2024/04/24 06:08:21;;;;;;;7.03;2.53;;;9.10;99.90;;;;;;5478017;26;20226;-77
2024/04/24 06:10:48;;;;;;;6.43;2.67;;;9.20;99.90;;;;;;5448473;26;20237;-77
2024/04/24 06:13:14;;;;;;;8.70;2.97;;;9.20;99.90;;;;;;5452381;26;20245;-78
2024/04/24 06:15:40;;;;;;;3.65;3.30;;;9.40;99.90;;;;;;5432356;26;20229;-77
2024/04/24 06:18:06;;;;;;;5.13;2.92;;;9.50;99.90;;;;;;5452323;26;20309;-78
2024/04/24 06:20:32;;;;;;;6.15;2.42;;;9.60;99.90;;;;;;5420426;26;20233;-78
2024/04/24 06:22:58;;;;;;;8.40;3.05;;;9.70;99.90;;;;;;5444489;26;20341;-78
2024/04/24 06:25:24;;;;;;;3.17;2.10;;;9.90;99.90;;;;;;5432638;26;20326;-77
2024/04/24 06:27:51;;;;;;;4.60;2.90;;;10.00;99.90;;;;;;5452121;26;20276;-78
2024/04/24 06:30:17;;;;;;;4.95;2.38;;;10.30;99.90;;;;;;5446295;26;20294;-77
2024/04/24 06:32:43;;;;;;;5.68;2.15;;;10.70;99.90;;;;;;5451864;26;20277;-77
2024/04/24 06:35:09;;;;;;;4.15;2.08;;;10.90;99.90;;;;;;5427928;26;20281;-78
2024/04/24 06:37:36;;;;;;;2.50;1.38;;;11.10;99.90;;;;;;5439073;26;20330;-77
2024/04/24 06:40:02;;;;;;;3.25;2.05;;;11.30;99.90;;;;;;5437419;26;20559;-78
2024/04/24 06:42:28;;;;;;;4.30;2.08;;;11.60;99.90;;;;;;5441202;26;20288;-77
2024/04/24 06:44:54;;;;;;;8.07;2.40;;;11.80;99.90;;;;;;5436535;26;20299;-79
2024/04/24 06:47:20;;;;;;;6.55;1.92;;;12.00;99.90;;;;;;5481077;26;20233;-78
2024/04/24 06:49:46;;;;;;;7.13;1.75;;;12.10;99.90;;;;;;5450059;26;20230;-78
2024/04/24 06:52:13;;;;;;;3.92;1.63;;;12.40;99.90;;;;;;5445899;26;20271;-79
2024/04/24 06:54:39;;;;;;;6.65;1.33;;;12.70;99.90;;;;;;5455712;26;20218;-79
2024/04/24 06:57:05;;;;;;;4.32;1.17;;;12.80;99.90;;;;;;5446581;26;20253;-77
2024/04/24 06:59:31;;;;;;;5.43;1.55;;;12.80;99.90;;;;;;5450680;26;20771;-77
2024/04/24 07:01:57;;;;;;;3.90;2.38;;;12.70;99.90;;;;;;5481038;26;20238;-77
2024/04/24 07:04:23;;;;;;;5.45;3.15;;;12.60;99.90;;;;;;5452316;26;20260;-77
2024/04/24 07:06:49;;;;;;;6.65;2.83;;;12.50;99.90;;;;;;5451724;26;20222;-78
2024/04/24 07:09:15;;;;;;;6.80;2.88;;;12.50;99.90;;;;;;5437266;26;20217;-77
2024/04/24 07:11:42;;;;;;;3.85;2.20;;;12.70;99.90;;;;;;5385839;26;20230;-77
2024/04/24 07:14:08;;;;;;;6.07;3.17;;;13.20;99.90;;;;;;5437606;26;20261;-78
2024/04/24 07:16:37;;;;;;;4.67;1.87;;;13.80;99.90;;;;;;5450265;26;21124;-77
2024/04/24 07:19:03;;;;;;;5.90;2.00;;;14.50;99.90;;;;;;5466809;26;20519;-78
2024/04/24 07:21:29;;;;;;;5.50;2.17;;;14.90;99.90;;;;;;5421751;26;20602;-78
2024/04/24 07:23:55;;;;;;;5.63;1.83;;;15.10;99.90;;;;;;5452642;26;20520;-78
2024/04/24 07:26:21;;;;;;;7.07;2.17;;;15.00;99.90;;;;;;5439401;26;20571;-78
2024/04/24 07:28:48;;;;;;;8.73;2.87;;;14.80;99.90;;;;;;5453170;26;20580;-78
2024/04/24 07:31:15;;;;;;;4.20;1.83;;;14.70;99.90;;;;;;5453882;26;20555;-77
2024/04/24 07:33:41;;;;;;;5.07;2.37;;;14.50;99.90;;;;;;5452533;26;20535;-77
2024/04/24 07:36:11;;;;;;;4.37;2.00;;;14.30;99.90;;;;;;5481265;26;20579;-76
2024/04/24 07:38:37;;;;;;;3.37;1.53;;;14.00;99.90;;;;;;5451298;26;20768;-77
2024/04/24 07:41:05;;;;;;;4.90;1.50;;;14.10;99.90;;;;;;5466502;26;20655;-77
2024/04/24 07:43:35;;;;;;;2.53;1.10;;;14.60;99.90;;;;;;5452816;26;20978;-77
2024/04/24 07:46:01;;;;;;;4.10;2.20;;;15.50;99.90;;;;;;5413929;26;21182;-76
2024/04/24 07:48:27;;;;;;;4.80;0.90;;;16.40;99.90;;;;;;5453840;26;20527;-76
2024/04/24 07:50:54;;;;;;;2.77;1.10;;;17.30;99.90;;;;;;5452962;26;20524;-77
2024/04/24 07:53:21;;;;;;;2.10;0.80;;;18.10;99.90;;;;;;5451901;26;21164;-77
2024/04/24 07:55:48;;;;;;;3.30;1.00;;;18.70;99.90;;;;;;5451763;26;20603;-77
2024/04/24 07:58:14;;;;;;;3.07;1.00;;;19.10;99.90;;;;;;5452249;26;21174;-77
2024/04/24 08:00:40;;;;;;;4.20;1.53;;;19.00;99.90;;;;;;5452119;26;20581;-77
2024/04/24 08:03:06;;;;;;;4.93;1.30;;;19.00;99.90;;;;;;5452216;26;20599;-77
2024/04/24 08:05:32;;;;;;;5.07;1.17;;;18.80;99.90;;;;;;5458822;26;20660;-76
2024/04/24 08:07:58;;;;;;;4.70;0.80;;;18.60;99.90;;;;;;5460954;26;20913;-76
2024/04/24 08:10:24;;;;;;;3.17;1.00;;;18.30;99.90;;;;;;5462189;26;20572;-76
2024/04/24 08:12:50;;;;;;;2.63;1.00;;;18.20;99.90;;;;;;5493346;26;20593;-76
2024/04/24 08:15:17;;;;;;;5.57;1.70;;;18.40;99.90;;;;;;5460058;26;20567;-76
2024/04/24 08:17:43;;;;;;;3.43;0.97;;;18.80;99.90;;;;;;5457695;26;20520;-76
2024/04/24 08:20:09;;;;;;;5.30;1.40;;;19.40;99.90;;;;;;5427031;26;20547;-76
2024/04/24 08:22:35;;;;;;;3.63;1.00;;;19.90;99.90;;;;;;5458641;26;20516;-76
2024/04/24 08:25:01;;;;;;;4.47;1.10;;;20.20;99.90;;;;;;5459869;26;20654;-76
2024/04/24 08:27:27;;;;;;;4.67;0.90;;;20.10;99.90;;;;;;5465456;26;20524;-75
2024/04/24 08:29:54;;;;;;;11.63;1.10;;;19.80;99.60;;;;;;5461719;26;20532;-75
2024/04/24 08:32:20;;;;;;;6.67;1.17;;;19.50;98.90;;;;;;5459471;26;20616;-77
2024/04/24 08:34:46;;;;;;;4.03;1.10;;;19.10;97.00;;;;;;5448100;26;20525;-75
2024/04/24 08:37:12;;;;;;;3.03;0.80;;;18.60;96.50;;;;;;5443820;26;21386;-75
2024/04/24 08:39:38;;;;;;;2.97;1.00;;;18.30;96.80;;;;;;5458828;26;20523;-75
2024/04/24 08:42:05;;;;;;;2.90;1.00;;;18.30;98.30;;;;;;5457420;26;21140;-75
2024/04/24 08:44:31;;;;;;;2.43;1.00;;;18.70;99.80;;;;;;5450703;26;20600;-74
2024/04/24 08:46:57;;;;;;;3.70;1.23;;;18.80;98.60;;;;;;5451123;26;20575;-76
2024/04/24 08:49:24;;;;;;;3.10;1.70;;;18.60;96.60;;;;;;5458017;26;20567;-76
2024/04/24 08:51:51;;;;;;;4.00;1.40;;;18.20;95.70;;;;;;5460756;26;20519;-75
2024/04/24 08:54:19;;;;;;;2.50;1.10;;;17.70;94.10;;;;;;5461694;26;20564;-75
2024/04/24 08:57:02;;;;;;;3.37;1.20;;;17.20;93.40;;;;;;5469790;26;20582;-73
2024/04/24 08:59:33;;;;;;;5.83;1.30;;;16.80;91.90;;;;;;5447607;26;20567;-74
2024/04/24 09:02:06;;;;;;;2.50;1.00;;;16.40;93.60;;;;;;5456101;26;20555;-73
2024/04/24 09:04:34;;;;;;;4.77;1.30;;;16.00;93.70;;;;;;5482511;26;20555;-75
2024/04/24 09:07:07;;;;;;;4.43;1.20;;;15.60;93.90;;;;;;5451796;26;20560;-75
2024/04/24 09:09:35;;;;;;;4.40;1.20;;;15.30;94.00;;;;;;5477744;26;20583;-76
2024/04/24 09:12:05;;;;;;;5.10;1.20;;;15.00;94.80;;;;;;5450617;26;20602;-75
2024/04/24 09:14:34;;;;;;;3.80;1.07;;;14.80;94.90;;;;;;5450002;26;20968;-73
2024/04/24 09:17:02;;;;;;;4.83;1.03;;;14.60;94.80;;;;;;5477981;26;20571;-75
2024/04/24 09:19:29;;;;;;;2.53;0.80;;;14.60;96.60;;;;;;5435168;26;20547;-73
2024/04/24 09:21:55;;;;;;;4.83;0.80;;;15.20;99.30;;;;;;5443398;26;20528;-73
2024/04/24 09:24:21;;;;;;;2.10;0.90;;;15.80;99.90;;;;;;5478450;26;20520;-74
2024/04/24 09:26:48;;;;;;;2.50;0.90;;;16.40;99.90;;;;;;5443540;26;20596;-74
2024/04/24 09:29:15;;;;;;;3.87;0.83;;;17.00;99.90;;;;;;5449843;26;20528;-74
2024/04/24 09:31:42;;;;;;;3.37;1.07;;;17.40;99.50;;;;;;5448282;26;20588;-74
2024/04/24 09:34:09;;;;;;;4.50;0.83;;;17.30;96.70;;;;;;5447549;26;20592;-73
2024/04/24 09:36:40;;;;;;;2.63;0.80;;;17.00;95.90;;;;;;5449050;26;20973;-74
2024/04/24 09:39:14;;;;;;;5.30;1.00;;;16.60;94.60;;;;;;5449431;26;20536;-73
2024/04/24 09:41:46;;;;;;;3.10;1.00;;;16.20;93.70;;;;;;5449381;26;20576;-74
2024/04/24 09:44:13;;;;;;;6.93;1.20;;;15.70;93.20;;;;;;5471996;26;20531;-74
2024/04/24 09:46:51;;;;;;;6.87;1.50;;;15.20;93.50;;;;;;5446743;26;21152;-74
2024/04/24 09:49:21;;;;;;;3.37;1.07;;;14.80;93.10;;;;;;5449256;26;20596;-74
2024/04/24 09:51:48;;;;;;;4.85;1.10;;;14.50;94.30;;;;;;5449010;26;20528;-76
2024/04/24 09:54:14;;;;;;;5.90;1.50;;;14.40;95.30;;;;;;5448642;26;20751;-76
2024/04/24 09:56:47;;;;;;;5.50;1.23;;;14.30;96.00;;;;;;5454529;26;20550;-76
2024/04/24 09:59:15;;;;;;;4.10;1.10;;;14.30;96.30;;;;;;5451504;26;20524;-76
2024/04/24 10:01:52;;;;;;;3.33;1.00;;;14.50;97.20;;;;;;5449278;26;20528;-76
2024/04/24 10:04:20;;;;;;;4.47;1.20;;;14.50;96.70;;;;;;5447015;26;20555;-76
2024/04/24 10:06:48;;;;;;;6.60;1.60;;;14.50;96.90;;;;;;5459193;26;20591;-76
2024/04/24 10:09:21;;;;;;;4.70;0.90;;;14.60;96.20;;;;;;5440337;26;20624;-76
2024/04/24 10:11:52;;;;;;;3.23;1.03;;;14.60;96.40;;;;;;5440253;26;20524;-76
2024/04/24 10:14:23;;;;;;;5.87;1.10;;;14.70;95.90;;;;;;5446641;26;20608;-76
2024/04/24 10:16:50;;;;;;;4.10;1.03;;;14.80;96.60;;;;;;5476684;26;20570;-76
2024/04/24 10:19:18;;;;;;;3.80;1.00;;;15.00;96.60;;;;;;5456682;26;20614;-78
2024/04/24 10:21:46;;;;;;;4.30;0.97;;;15.20;96.90;;;;;;5448696;26;20911;-76
2024/04/24 10:24:13;;;;;;;3.57;1.10;;;15.30;96.30;;;;;;5448294;26;20647;-75
2024/04/24 10:26:41;;;;;;;5.33;1.00;;;15.50;96.30;;;;;;5447865;26;20611;-75
2024/04/24 10:29:07;;;;;;;4.63;1.37;;;15.60;96.20;;;;;;5445355;26;20587;-76
2024/04/24 10:31:33;;;;;;;4.80;1.00;;;15.80;96.30;;;;;;5438862;26;21150;-76
2024/04/24 10:34:00;;;;;;;2.80;0.70;;;16.10;96.40;;;;;;5437382;26;20632;-76
2024/04/24 10:36:27;;;;;;;3.87;1.10;;;16.50;96.90;;;;;;5431314;26;20563;-76
2024/04/24 10:38:54;;;;;;;4.43;1.30;;;16.80;95.90;;;;;;5447893;26;20535;-75
2024/04/24 10:41:21;;;;;;;4.33;1.20;;;17.00;95.00;;;;;;5445752;26;20552;-76
2024/04/24 10:43:48;;;;;;;3.80;1.17;;;17.30;95.50;;;;;;5476438;26;20606;-76
2024/04/24 10:46:21;;;;;;;2.43;0.80;;;17.50;94.90;;;;;;5434325;26;21397;-76
2024/04/24 10:48:55;;;;;;;4.13;1.10;;;17.50;94.00;;;;;;5444640;26;20523;-75
2024/04/24 10:51:30;;;;;;;3.20;1.10;;;17.50;92.60;;;;;;5446353;26;20527;-75
2024/04/24 10:53:59;;;;;;;4.63;1.20;;;17.50;92.80;;;;;;5478464;26;20596;-76
2024/04/24 10:56:35;;;;;;;4.47;1.20;;;17.50;93.10;;;;;;5435371;26;20649;-76
2024/04/24 10:59:01;;;;;;;6.97;1.40;;;17.40;91.10;;;;;;5451980;26;20608;-75
2024/04/24 11:01:31;;;;;;;4.00;0.90;;;17.50;94.10;;;;;;5452255;26;20653;-76
2024/04/24 11:04:01;;;;;;;3.63;0.93;;;17.60;93.60;;;;;;5454661;26;20934;-76
2024/04/24 11:06:28;;;;;;;4.80;1.70;;;17.80;94.20;;;;;;5481083;26;20623;-76
2024/04/24 11:08:55;;;;;;;3.00;1.30;;;17.90;93.10;;;;;;5443129;26;20958;-75
2024/04/24 11:11:22;;;;;;;3.73;1.10;;;17.80;92.20;;;;;;5451540;26;20516;-75
2024/04/24 11:14:02;;;;;;;5.20;1.43;;;17.70;91.20;;;;;;5451177;26;20942;-75
2024/04/24 11:16:28;;;;;;;4.17;1.00;;;17.40;91.10;;;;;;5449429;26;20578;-76
2024/04/24 11:18:54;;;;;;;5.60;1.00;;;17.20;91.10;;;;;;5451255;26;20539;-76
2024/04/24 11:21:24;;;;;;;3.50;1.37;;;17.10;91.40;;;;;;5450085;26;20971;-76
2024/04/24 11:23:52;;;;;;;3.80;1.27;;;16.90;90.40;;;;;;5449808;26;20536;-76
2024/04/24 11:26:32;;;;;;;3.40;1.00;;;16.60;89.40;;;;;;5450767;26;20656;-76
2024/04/24 11:29:01;;;;;;;4.73;0.70;;;16.20;84.80;;;;;;5449728;26;20527;-75
2024/04/24 11:31:32;;;;;;;5.00;1.20;;;15.90;87.80;;;;;;5492498;26;20888;-76
2024/04/24 11:33:59;;;;;;;3.47;0.90;;;15.70;89.10;;;;;;5451333;26;20983;-75
2024/04/24 11:36:27;;;;;;;3.67;1.13;;;15.50;90.00;;;;;;5450582;26;20627;-75
2024/04/24 11:38:54;;;;;;;7.13;1.20;;;15.40;90.60;;;;;;5441189;26;20625;-74
2024/04/24 11:41:21;;;;;;;3.57;0.80;;;15.30;91.30;;;;;;5451501;26;20568;-74
2024/04/24 11:43:49;;;;;;;7.03;0.87;;;15.30;91.50;;;;;;5451047;26;20610;-75
2024/04/24 11:46:18;;;;;;;4.10;1.30;;;15.20;91.00;;;;;;5457774;26;20567;-75
2024/04/24 11:48:52;;;;;;;3.00;1.20;;;15.00;90.80;;;;;;5449273;26;20535;-75
2024/04/24 11:51:19;;;;;;;3.10;1.27;;;14.70;90.80;;;;;;5451146;26;20524;-75
2024/04/24 11:53:47;;;;;;;4.97;1.17;;;14.30;90.80;;;;;;5419686;26;20610;-75
2024/04/24 11:56:13;;;;;;;4.93;1.05;;;13.90;91.10;;;;;;5450233;26;20245;-74
2024/04/24 11:58:39;;;;;;;2.25;0.95;;;13.50;91.60;;;;;;5450857;26;20233;-74
2024/04/24 12:01:07;;;;;;;2.55;1.00;;;13.30;92.90;;;;;;5450936;26;20233;-74
2024/04/24 12:03:33;;;;;;;5.72;1.15;;;13.10;94.00;;;;;;5451206;26;20302;-74
2024/04/24 12:06:00;;;;;;;2.67;1.02;;;13.00;95.10;;;;;;5450213;26;20289;-74
2024/04/24 12:08:27;;;;;;;2.92;1.10;;;13.00;96.00;;;;;;5450311;26;20221;-75
2024/04/24 12:11:04;;;;;;;4.15;1.50;;;13.00;96.70;;;;;;5452648;26;20261;-75
2024/04/24 12:13:32;;;;;;;5.00;1.30;;;12.90;97.40;;;;;;5448717;26;20221;-76
2024/04/24 12:16:00;;;;;;;3.25;1.08;;;12.90;99.00;;;;;;5450433;26;20288;-75
2024/04/24 12:18:28;;;;;;;4.65;0.82;;;13.10;99.90;;;;;;5445066;26;20264;-76
2024/04/24 12:20:55;;;;;;;4.37;0.93;;;13.20;99.90;;;;;;5474223;26;20574;-73
2024/04/24 12:23:26;;;;;;;7.03;1.10;;;13.50;99.90;;;;;;5450702;26;21106;-75
2024/04/24 12:25:53;;;;;;;5.17;1.63;;;13.70;99.90;;;;;;5485221;26;20275;-74
2024/04/24 12:28:20;;;;;;;4.53;1.20;;;14.00;99.90;;;;;;5444084;26;20591;-75
2024/04/24 12:30:46;;;;;;;2.90;1.33;;;14.20;99.90;;;;;;5464404;26;20520;-76
2024/04/24 12:33:12;;;;;;;2.33;0.80;;;14.40;99.90;;;;;;5442469;26;20584;-75
2024/04/24 12:35:39;;;;;;;3.17;1.00;;;14.60;99.90;;;;;;5426580;26;21226;-74
2024/04/24 12:38:06;;;;;;;2.50;0.70;;;14.70;99.90;;;;;;5438691;26;20528;-75
2024/04/24 12:40:32;;;;;;;2.20;0.60;;;14.90;99.90;;;;;;5479311;26;20524;-75
2024/04/24 12:42:59;;;;;;;1.60;0.60;;;15.00;99.90;;;;;;5450682;26;20539;-74
2024/04/24 12:45:26;;;;;;;4.07;1.97;;;15.20;99.90;;;;;;5445247;26;20664;-74
2024/04/24 12:47:52;;;;;;;4.73;0.90;;;15.30;99.90;;;;;;5447933;26;20610;-75
2024/04/24 12:50:18;;;;;;;3.70;1.00;;;15.40;99.90;;;;;;5441729;26;20580;-74
2024/04/24 12:52:45;;;;;;;3.23;1.40;;;15.40;99.90;;;;;;5441468;26;20619;-75
2024/04/24 12:55:11;;;;;;;2.93;1.20;;;15.50;99.90;;;;;;5447271;26;20673;-75